sensor_id;sensor_type;location;lat;lon;timestamp;temperature;humidity
39621;DHT22;25309;48.686;9.170;2023-07-30T00:00:09;18.50;99.90
39621;DHT22;25309;48.686;9.170;2023-07-30T00:02:37;18.40;99.90
39621;DHT22;25309;48.686;9.170;2023-07-30T00:05:04;18.30;99.90
39621;DHT22;25309;48.686;9.170;2023-07-30T00:07:31;18.30;99.90
39621;DHT22;25309;48.686;9.170;2023-07-30T00:10:00;18.30;99.90
39621;DHT22;25309;48.686;9.170;2023-07-30T00:12:27;18.30;99.90
39621;DHT22;25309;48.686;9.170;2023-07-30T00:14:53;18.30;99.90
39621;DHT22;25309;48.686;9.170;2023-07-30T00:17:20;18.30;99.90
39621;DHT22;25309;48.686;9.170;2023-07-30T00:19:47;18.30;99.90
39621;DHT22;25309;48.686;9.170;2023-07-30T00:22:14;18.20;99.90
39621;DHT22;25309;48.686;9.170;2023-07-30T00:24:41;18.20;99.90
39621;DHT22;25309;48.686;9.170;2023-07-30T00:27:09;18.20;99.90
39621;DHT22;25309;48.686;9.170;2023-07-30T00:29:36;18.20;99.90
39621;DHT22;25309;48.686;9.170;2023-07-30T00:32:04;18.10;99.90
39621;DHT22;25309;48.686;9.170;2023-07-30T00:34:31;18.10;99.90
39621;DHT22;25309;48.686;9.170;2023-07-30T00:36:58;18.10;99.90
39621;DHT22;25309;48.686;9.170;2023-07-30T00:39:25;18.00;99.90
39621;DHT22;25309;48.686;9.170;2023-07-30T00:41:52;18.00;99.90
39621;DHT22;25309;48.686;9.170;2023-07-30T00:44:20;18.00;99.90
39621;DHT22;25309;48.686;9.170;2023-07-30T00:46:47;17.90;99.90
39621;DHT22;25309;48.686;9.170;2023-07-30T00:49:14;17.90;99.90
39621;DHT22;25309;48.686;9.170;2023-07-30T00:51:42;17.90;99.90
39621;DHT22;25309;48.686;9.170;2023-07-30T00:54:10;17.80;99.90
39621;DHT22;25309;48.686;9.170;2023-07-30T00:56:37;17.80;99.90
39621;DHT22;25309;48.686;9.170;2023-07-30T00:59:04;17.80;99.90
39621;DHT22;25309;48.686;9.170;2023-07-30T01:01:33;17.80;99.90
39621;DHT22;25309;48.686;9.170;2023-07-30T01:04:03;17.80;99.90
39621;DHT22;25309;48.686;9.170;2023-07-30T01:06:30;17.90;99.90
39621;DHT22;25309;48.686;9.170;2023-07-30T01:08:58;17.90;99.90
39621;DHT22;25309;48.686;9.170;2023-07-30T01:11:25;17.80;99.90
39621;DHT22;25309;48.686;9.170;2023-07-30T01:13:53;17.90;99.90
39621;DHT22;25309;48.686;9.170;2023-07-30T01:16:20;17.90;99.90
39621;DHT22;25309;48.686;9.170;2023-07-30T01:18:49;17.90;99.90
39621;DHT22;25309;48.686;9.170;2023-07-30T01:21:18;17.90;99.90
39621;DHT22;25309;48.686;9.170;2023-07-30T01:23:45;17.90;99.90
39621;DHT22;25309;48.686;9.170;2023-07-30T01:26:19;17.80;99.90
39621;DHT22;25309;48.686;9.170;2023-07-30T01:28:52;17.80;99.90
39621;DHT22;25309;48.686;9.170;2023-07-30T01:31:21;17.80;99.90
39621;DHT22;25309;48.686;9.170;2023-07-30T01:33:52;17.80;99.90
39621;DHT22;25309;48.686;9.170;2023-07-30T01:36:22;17.70;99.90
39621;DHT22;25309;48.686;9.170;2023-07-30T01:38:50;17.70;99.90
39621;DHT22;25309;48.686;9.170;2023-07-30T01:41:17;17.70;99.90
39621;DHT22;25309;48.686;9.170;2023-07-30T01:43:45;17.60;99.90
39621;DHT22;25309;48.686;9.170;2023-07-30T01:46:12;17.60;99.90
39621;DHT22;25309;48.686;9.170;2023-07-30T01:48:39;17.60;99.90
39621;DHT22;25309;48.686;9.170;2023-07-30T01:51:06;17.60;99.90
39621;DHT22;25309;48.686;9.170;2023-07-30T01:53:34;17.50;99.90
39621;DHT22;25309;48.686;9.170;2023-07-30T01:56:01;17.50;99.90
39621;DHT22;25309;48.686;9.170;2023-07-30T01:58:28;17.40;99.90
39621;DHT22;25309;48.686;9.170;2023-07-30T02:00:54;17.40;99.90
39621;DHT22;25309;48.686;9.170;2023-07-30T02:03:21;17.40;99.90
39621;DHT22;25309;48.686;9.170;2023-07-30T02:05:49;17.30;99.90
39621;DHT22;25309;48.686;9.170;2023-07-30T02:08:16;17.30;99.90
39621;DHT22;25309;48.686;9.170;2023-07-30T02:10:54;17.30;99.90
39621;DHT22;25309;48.686;9.170;2023-07-30T02:13:21;17.30;99.90
39621;DHT22;25309;48.686;9.170;2023-07-30T02:15:48;17.20;99.90
39621;DHT22;25309;48.686;9.170;2023-07-30T02:18:15;17.20;99.90
39621;DHT22;25309;48.686;9.170;2023-07-30T02:20:42;17.20;99.90
39621;DHT22;25309;48.686;9.170;2023-07-30T02:23:09;17.20;99.90
39621;DHT22;25309;48.686;9.170;2023-07-30T02:25:37;17.20;99.90
39621;DHT22;25309;48.686;9.170;2023-07-30T02:28:06;17.20;99.90
39621;DHT22;25309;48.686;9.170;2023-07-30T02:30:33;17.20;99.90
39621;DHT22;25309;48.686;9.170;2023-07-30T02:33:00;17.20;99.90
39621;DHT22;25309;48.686;9.170;2023-07-30T02:35:27;17.20;99.90
39621;DHT22;25309;48.686;9.170;2023-07-30T02:37:54;17.10;99.90
39621;DHT22;25309;48.686;9.170;2023-07-30T02:40:21;17.20;99.90
39621;DHT22;25309;48.686;9.170;2023-07-30T02:42:48;17.10;99.90
39621;DHT22;25309;48.686;9.170;2023-07-30T02:45:17;17.20;99.90
39621;DHT22;25309;48.686;9.170;2023-07-30T02:47:44;17.20;99.90
39621;DHT22;25309;48.686;9.170;2023-07-30T02:50:11;17.20;99.90
39621;DHT22;25309;48.686;9.170;2023-07-30T02:52:38;17.30;99.90
39621;DHT22;25309;48.686;9.170;2023-07-30T02:55:06;17.30;99.90
39621;DHT22;25309;48.686;9.170;2023-07-30T02:57:33;17.30;99.90
39621;DHT22;25309;48.686;9.170;2023-07-30T02:59:59;17.30;99.90
39621;DHT22;25309;48.686;9.170;2023-07-30T03:02:28;17.30;99.90
39621;DHT22;25309;48.686;9.170;2023-07-30T03:04:55;17.30;99.90
39621;DHT22;25309;48.686;9.170;2023-07-30T03:07:23;17.20;99.90
39621;DHT22;25309;48.686;9.170;2023-07-30T03:09:50;17.20;99.90
39621;DHT22;25309;48.686;9.170;2023-07-30T03:12:17;17.10;99.90
39621;DHT22;25309;48.686;9.170;2023-07-30T03:14:44;17.10;99.90
39621;DHT22;25309;48.686;9.170;2023-07-30T03:17:11;17.10;99.90
39621;DHT22;25309;48.686;9.170;2023-07-30T03:19:39;17.00;99.90
39621;DHT22;25309;48.686;9.170;2023-07-30T03:22:06;17.00;99.90
39621;DHT22;25309;48.686;9.170;2023-07-30T03:24:33;17.00;99.90
39621;DHT22;25309;48.686;9.170;2023-07-30T03:27:00;17.00;99.90
39621;DHT22;25309;48.686;9.170;2023-07-30T03:29:27;17.00;99.90
39621;DHT22;25309;48.686;9.170;2023-07-30T03:31:54;17.00;99.90
39621;DHT22;25309;48.686;9.170;2023-07-30T03:34:20;17.10;99.90
39621;DHT22;25309;48.686;9.170;2023-07-30T03:36:49;17.10;99.90
39621;DHT22;25309;48.686;9.170;2023-07-30T03:39:16;17.10;99.90
39621;DHT22;25309;48.686;9.170;2023-07-30T03:41:43;17.10;99.90
39621;DHT22;25309;48.686;9.170;2023-07-30T03:44:11;17.10;99.90
39621;DHT22;25309;48.686;9.170;2023-07-30T03:46:38;17.20;99.90
39621;DHT22;25309;48.686;9.170;2023-07-30T03:49:06;17.10;99.90
39621;DHT22;25309;48.686;9.170;2023-07-30T03:51:33;17.20;99.90
39621;DHT22;25309;48.686;9.170;2023-07-30T03:54:02;17.20;99.90
39621;DHT22;25309;48.686;9.170;2023-07-30T03:56:29;17.30;99.90
39621;DHT22;25309;48.686;9.170;2023-07-30T03:58:56;17.30;99.90
39621;DHT22;25309;48.686;9.170;2023-07-30T04:01:23;17.30;99.90
39621;DHT22;25309;48.686;9.170;2023-07-30T04:03:50;17.30;99.90
39621;DHT22;25309;48.686;9.170;2023-07-30T04:06:18;17.30;99.90
39621;DHT22;25309;48.686;9.170;2023-07-30T04:08:45;17.30;99.90
39621;DHT22;25309;48.686;9.170;2023-07-30T04:11:13;17.30;99.90
39621;DHT22;25309;48.686;9.170;2023-07-30T04:13:40;17.30;99.90
39621;DHT22;25309;48.686;9.170;2023-07-30T04:16:07;17.30;99.90
39621;DHT22;25309;48.686;9.170;2023-07-30T04:18:34;17.30;99.90
39621;DHT22;25309;48.686;9.170;2023-07-30T04:21:01;17.30;99.90
39621;DHT22;25309;48.686;9.170;2023-07-30T04:23:28;17.30;99.90
39621;DHT22;25309;48.686;9.170;2023-07-30T04:25:56;17.30;99.90
39621;DHT22;25309;48.686;9.170;2023-07-30T04:28:24;17.30;99.90
39621;DHT22;25309;48.686;9.170;2023-07-30T04:30:51;17.40;99.90
39621;DHT22;25309;48.686;9.170;2023-07-30T04:33:18;17.40;99.90
39621;DHT22;25309;48.686;9.170;2023-07-30T04:35:45;17.40;99.90
39621;DHT22;25309;48.686;9.170;2023-07-30T04:38:12;17.30;99.90
39621;DHT22;25309;48.686;9.170;2023-07-30T04:40:39;17.40;99.90
39621;DHT22;25309;48.686;9.170;2023-07-30T04:43:07;17.40;99.90
39621;DHT22;25309;48.686;9.170;2023-07-30T04:45:36;17.40;99.90
39621;DHT22;25309;48.686;9.170;2023-07-30T04:48:04;17.40;99.90
39621;DHT22;25309;48.686;9.170;2023-07-30T04:50:31;17.40;99.90
39621;DHT22;25309;48.686;9.170;2023-07-30T04:52:58;17.40;99.90
39621;DHT22;25309;48.686;9.170;2023-07-30T04:55:25;17.40;99.90
39621;DHT22;25309;48.686;9.170;2023-07-30T04:57:52;17.40;99.90
39621;DHT22;25309;48.686;9.170;2023-07-30T05:00:19;17.40;99.90
39621;DHT22;25309;48.686;9.170;2023-07-30T05:02:47;17.40;99.90
39621;DHT22;25309;48.686;9.170;2023-07-30T05:05:14;17.40;99.90
39621;DHT22;25309;48.686;9.170;2023-07-30T05:07:42;17.40;99.90
39621;DHT22;25309;48.686;9.170;2023-07-30T05:10:09;17.50;99.90
39621;DHT22;25309;48.686;9.170;2023-07-30T05:12:37;17.50;99.90
39621;DHT22;25309;48.686;9.170;2023-07-30T05:15:05;17.60;99.90
39621;DHT22;25309;48.686;9.170;2023-07-30T05:17:33;17.60;99.90
39621;DHT22;25309;48.686;9.170;2023-07-30T05:20:01;17.60;99.90
39621;DHT22;25309;48.686;9.170;2023-07-30T05:22:28;17.60;99.90
39621;DHT22;25309;48.686;9.170;2023-07-30T05:24:55;17.70;99.90
39621;DHT22;25309;48.686;9.170;2023-07-30T05:27:23;17.70;99.90
39621;DHT22;25309;48.686;9.170;2023-07-30T05:29:50;17.70;99.90
39621;DHT22;25309;48.686;9.170;2023-07-30T05:32:17;17.80;99.90
39621;DHT22;25309;48.686;9.170;2023-07-30T05:34:44;17.90;99.90
39621;DHT22;25309;48.686;9.170;2023-07-30T05:37:12;17.90;99.90
39621;DHT22;25309;48.686;9.170;2023-07-30T05:39:39;17.90;99.90
39621;DHT22;25309;48.686;9.170;2023-07-30T05:42:06;17.90;99.90
39621;DHT22;25309;48.686;9.170;2023-07-30T05:44:33;17.90;99.90
39621;DHT22;25309;48.686;9.170;2023-07-30T05:47:00;17.80;99.90
39621;DHT22;25309;48.686;9.170;2023-07-30T05:49:26;17.80;99.90
39621;DHT22;25309;48.686;9.170;2023-07-30T05:51:53;17.80;99.90
39621;DHT22;25309;48.686;9.170;2023-07-30T05:54:22;17.80;99.90
39621;DHT22;25309;48.686;9.170;2023-07-30T05:56:49;17.80;99.90
39621;DHT22;25309;48.686;9.170;2023-07-30T05:59:16;17.90;99.90
39621;DHT22;25309;48.686;9.170;2023-07-30T06:01:47;17.90;99.90
39621;DHT22;25309;48.686;9.170;2023-07-30T06:04:14;17.90;99.90
39621;DHT22;25309;48.686;9.170;2023-07-30T06:06:41;18.00;99.90
39621;DHT22;25309;48.686;9.170;2023-07-30T06:09:08;18.10;99.90
39621;DHT22;25309;48.686;9.170;2023-07-30T06:11:36;18.10;99.90
39621;DHT22;25309;48.686;9.170;2023-07-30T06:14:03;18.20;99.90
39621;DHT22;25309;48.686;9.170;2023-07-30T06:16:30;18.30;99.90
39621;DHT22;25309;48.686;9.170;2023-07-30T06:18:57;18.30;99.90
39621;DHT22;25309;48.686;9.170;2023-07-30T06:21:24;18.30;99.90
39621;DHT22;25309;48.686;9.170;2023-07-30T06:23:51;18.30;99.90
39621;DHT22;25309;48.686;9.170;2023-07-30T06:26:18;18.30;99.90
39621;DHT22;25309;48.686;9.170;2023-07-30T06:28:47;18.30;99.90
39621;DHT22;25309;48.686;9.170;2023-07-30T06:31:13;18.40;99.90
39621;DHT22;25309;48.686;9.170;2023-07-30T06:33:40;18.40;99.90
39621;DHT22;25309;48.686;9.170;2023-07-30T06:36:08;18.50;99.90
39621;DHT22;25309;48.686;9.170;2023-07-30T06:38:34;18.60;99.90
39621;DHT22;25309;48.686;9.170;2023-07-30T06:41:04;18.60;99.90
39621;DHT22;25309;48.686;9.170;2023-07-30T06:43:31;18.70;99.90
39621;DHT22;25309;48.686;9.170;2023-07-30T06:46:00;18.70;99.90
39621;DHT22;25309;48.686;9.170;2023-07-30T06:48:27;18.70;99.90
39621;DHT22;25309;48.686;9.170;2023-07-30T06:50:54;18.70;99.90
39621;DHT22;25309;48.686;9.170;2023-07-30T06:53:21;18.80;99.90
39621;DHT22;25309;48.686;9.170;2023-07-30T06:55:47;18.80;99.90
39621;DHT22;25309;48.686;9.170;2023-07-30T06:58:14;18.90;99.90
39621;DHT22;25309;48.686;9.170;2023-07-30T07:00:41;19.00;99.90
39621;DHT22;25309;48.686;9.170;2023-07-30T07:03:10;19.10;99.90
39621;DHT22;25309;48.686;9.170;2023-07-30T07:05:37;19.20;99.90
39621;DHT22;25309;48.686;9.170;2023-07-30T07:08:04;19.30;99.90
39621;DHT22;25309;48.686;9.170;2023-07-30T07:10:31;19.40;99.90
39621;DHT22;25309;48.686;9.170;2023-07-30T07:12:58;19.50;99.90
39621;DHT22;25309;48.686;9.170;2023-07-30T07:15:25;19.50;99.90
39621;DHT22;25309;48.686;9.170;2023-07-30T07:17:51;19.60;99.90
39621;DHT22;25309;48.686;9.170;2023-07-30T07:20:20;19.60;99.90
39621;DHT22;25309;48.686;9.170;2023-07-30T07:22:47;19.60;99.90
39621;DHT22;25309;48.686;9.170;2023-07-30T07:25:14;19.60;99.90
39621;DHT22;25309;48.686;9.170;2023-07-30T07:27:41;19.50;99.90
39621;DHT22;25309;48.686;9.170;2023-07-30T07:30:09;19.40;99.90
39621;DHT22;25309;48.686;9.170;2023-07-30T07:32:36;19.20;99.90
39621;DHT22;25309;48.686;9.170;2023-07-30T07:35:06;18.80;99.90
39621;DHT22;25309;48.686;9.170;2023-07-30T07:37:35;18.30;99.90
39621;DHT22;25309;48.686;9.170;2023-07-30T07:40:02;18.00;99.90
39621;DHT22;25309;48.686;9.170;2023-07-30T07:42:30;17.90;99.90
39621;DHT22;25309;48.686;9.170;2023-07-30T07:44:57;17.70;99.90
39621;DHT22;25309;48.686;9.170;2023-07-30T07:47:24;17.60;99.90
39621;DHT22;25309;48.686;9.170;2023-07-30T07:49:51;17.60;99.90
39621;DHT22;25309;48.686;9.170;2023-07-30T07:52:18;17.70;99.90
39621;DHT22;25309;48.686;9.170;2023-07-30T07:54:47;17.70;99.90
39621;DHT22;25309;48.686;9.170;2023-07-30T07:57:14;17.80;99.90
39621;DHT22;25309;48.686;9.170;2023-07-30T07:59:41;17.80;99.90
39621;DHT22;25309;48.686;9.170;2023-07-30T08:02:11;17.90;99.90
39621;DHT22;25309;48.686;9.170;2023-07-30T08:04:39;18.00;99.90
39621;DHT22;25309;48.686;9.170;2023-07-30T08:07:06;18.10;99.90
39621;DHT22;25309;48.686;9.170;2023-07-30T08:09:33;18.30;99.90
39621;DHT22;25309;48.686;9.170;2023-07-30T08:12:02;18.50;99.90
39621;DHT22;25309;48.686;9.170;2023-07-30T08:14:29;18.60;99.90
39621;DHT22;25309;48.686;9.170;2023-07-30T08:16:56;18.70;99.90
39621;DHT22;25309;48.686;9.170;2023-07-30T08:19:23;18.70;99.90
39621;DHT22;25309;48.686;9.170;2023-07-30T08:21:50;18.80;99.90
39621;DHT22;25309;48.686;9.170;2023-07-30T08:24:17;19.00;99.90
39621;DHT22;25309;48.686;9.170;2023-07-30T08:26:44;19.10;99.90
39621;DHT22;25309;48.686;9.170;2023-07-30T08:29:14;19.30;99.90
39621;DHT22;25309;48.686;9.170;2023-07-30T08:31:41;19.50;99.90
39621;DHT22;25309;48.686;9.170;2023-07-30T08:34:08;19.70;99.90
39621;DHT22;25309;48.686;9.170;2023-07-30T08:36:35;19.90;99.90
39621;DHT22;25309;48.686;9.170;2023-07-30T08:39:03;19.90;99.90
39621;DHT22;25309;48.686;9.170;2023-07-30T08:41:31;20.00;99.90
39621;DHT22;25309;48.686;9.170;2023-07-30T08:43:58;20.10;99.90
39621;DHT22;25309;48.686;9.170;2023-07-30T08:46:27;20.20;99.90
39621;DHT22;25309;48.686;9.170;2023-07-30T08:48:54;20.20;99.90
39621;DHT22;25309;48.686;9.170;2023-07-30T08:51:24;20.30;99.90
39621;DHT22;25309;48.686;9.170;2023-07-30T08:53:52;20.50;99.90
39621;DHT22;25309;48.686;9.170;2023-07-30T08:56:20;20.70;99.90
39621;DHT22;25309;48.686;9.170;2023-07-30T08:58:48;20.90;99.90
39621;DHT22;25309;48.686;9.170;2023-07-30T09:01:18;21.00;99.90
39621;DHT22;25309;48.686;9.170;2023-07-30T09:03:48;21.10;99.90
39621;DHT22;25309;48.686;9.170;2023-07-30T09:06:16;21.30;99.90
39621;DHT22;25309;48.686;9.170;2023-07-30T09:08:43;21.40;99.90
39621;DHT22;25309;48.686;9.170;2023-07-30T09:11:10;21.60;99.90
39621;DHT22;25309;48.686;9.170;2023-07-30T09:13:38;21.80;99.90
39621;DHT22;25309;48.686;9.170;2023-07-30T09:16:09;22.00;99.90
39621;DHT22;25309;48.686;9.170;2023-07-30T09:18:40;22.20;99.90
39621;DHT22;25309;48.686;9.170;2023-07-30T09:21:10;22.20;99.90
39621;DHT22;25309;48.686;9.170;2023-07-30T09:23:40;22.10;99.90
39621;DHT22;25309;48.686;9.170;2023-07-30T09:26:08;21.80;99.90
39621;DHT22;25309;48.686;9.170;2023-07-30T09:28:35;21.70;99.90
39621;DHT22;25309;48.686;9.170;2023-07-30T09:31:03;21.50;99.90
39621;DHT22;25309;48.686;9.170;2023-07-30T09:33:45;21.30;99.90
39621;DHT22;25309;48.686;9.170;2023-07-30T09:36:13;21.00;99.90
39621;DHT22;25309;48.686;9.170;2023-07-30T09:38:42;20.90;99.90
39621;DHT22;25309;48.686;9.170;2023-07-30T09:41:11;20.60;99.90
39621;DHT22;25309;48.686;9.170;2023-07-30T09:43:38;20.50;99.90
39621;DHT22;25309;48.686;9.170;2023-07-30T09:46:06;20.20;99.90
39621;DHT22;25309;48.686;9.170;2023-07-30T09:48:34;20.10;99.90
39621;DHT22;25309;48.686;9.170;2023-07-30T09:51:02;19.80;99.90
39621;DHT22;25309;48.686;9.170;2023-07-30T09:53:32;19.60;99.90
39621;DHT22;25309;48.686;9.170;2023-07-30T09:56:02;19.50;99.90
39621;DHT22;25309;48.686;9.170;2023-07-30T09:58:29;19.50;99.90
39621;DHT22;25309;48.686;9.170;2023-07-30T10:00:58;19.40;99.90
39621;DHT22;25309;48.686;9.170;2023-07-30T10:03:26;19.50;99.90
39621;DHT22;25309;48.686;9.170;2023-07-30T10:05:57;19.50;99.90
39621;DHT22;25309;48.686;9.170;2023-07-30T10:08:34;19.80;99.90
39621;DHT22;25309;48.686;9.170;2023-07-30T10:11:03;20.10;99.90
39621;DHT22;25309;48.686;9.170;2023-07-30T10:13:32;20.60;99.90
39621;DHT22;25309;48.686;9.170;2023-07-30T10:15:59;21.40;99.90
39621;DHT22;25309;48.686;9.170;2023-07-30T10:18:33;22.30;99.90
39621;DHT22;25309;48.686;9.170;2023-07-30T10:21:01;22.90;99.90
39621;DHT22;25309;48.686;9.170;2023-07-30T10:23:33;24.10;99.90
39621;DHT22;25309;48.686;9.170;2023-07-30T10:26:09;25.20;99.90
39621;DHT22;25309;48.686;9.170;2023-07-30T10:28:37;25.90;99.90
39621;DHT22;25309;48.686;9.170;2023-07-30T10:31:06;26.00;99.90
39621;DHT22;25309;48.686;9.170;2023-07-30T10:33:46;25.90;99.90
39621;DHT22;25309;48.686;9.170;2023-07-30T10:36:14;25.90;99.90
39621;DHT22;25309;48.686;9.170;2023-07-30T10:38:44;25.70;99.90
39621;DHT22;25309;48.686;9.170;2023-07-30T10:41:13;25.80;99.90
39621;DHT22;25309;48.686;9.170;2023-07-30T10:43:46;25.70;99.90
39621;DHT22;25309;48.686;9.170;2023-07-30T10:46:14;25.70;99.90
39621;DHT22;25309;48.686;9.170;2023-07-30T10:48:43;25.30;99.90
39621;DHT22;25309;48.686;9.170;2023-07-30T10:51:12;25.80;99.90
39621;DHT22;25309;48.686;9.170;2023-07-30T10:53:39;26.70;99.90
39621;DHT22;25309;48.686;9.170;2023-07-30T10:56:10;27.80;99.90
39621;DHT22;25309;48.686;9.170;2023-07-30T10:58:38;27.90;99.90
39621;DHT22;25309;48.686;9.170;2023-07-30T11:01:06;26.90;99.90
39621;DHT22;25309;48.686;9.170;2023-07-30T11:03:34;26.60;99.90
39621;DHT22;25309;48.686;9.170;2023-07-30T11:06:02;26.50;99.90
39621;DHT22;25309;48.686;9.170;2023-07-30T11:08:33;26.70;99.90
39621;DHT22;25309;48.686;9.170;2023-07-30T11:11:00;26.80;99.90
39621;DHT22;25309;48.686;9.170;2023-07-30T11:13:29;26.50;99.90
39621;DHT22;25309;48.686;9.170;2023-07-30T11:15:56;26.30;99.90
39621;DHT22;25309;48.686;9.170;2023-07-30T11:18:23;26.30;99.90
39621;DHT22;25309;48.686;9.170;2023-07-30T11:20:50;26.10;99.90
39621;DHT22;25309;48.686;9.170;2023-07-30T11:23:18;26.10;99.40
39621;DHT22;25309;48.686;9.170;2023-07-30T11:25:47;26.30;99.60
39621;DHT22;25309;48.686;9.170;2023-07-30T11:28:28;26.40;99.90
39621;DHT22;25309;48.686;9.170;2023-07-30T11:30:58;26.30;96.90
39621;DHT22;25309;48.686;9.170;2023-07-30T11:33:26;25.90;97.40
39621;DHT22;25309;48.686;9.170;2023-07-30T11:35:54;25.60;96.70
39621;DHT22;25309;48.686;9.170;2023-07-30T11:38:22;25.90;98.40
39621;DHT22;25309;48.686;9.170;2023-07-30T11:40:50;26.40;97.00
39621;DHT22;25309;48.686;9.170;2023-07-30T11:43:18;26.90;97.30
39621;DHT22;25309;48.686;9.170;2023-07-30T11:45:47;27.40;97.10
39621;DHT22;25309;48.686;9.170;2023-07-30T11:48:14;27.50;94.10
39621;DHT22;25309;48.686;9.170;2023-07-30T11:50:45;27.40;94.70
39621;DHT22;25309;48.686;9.170;2023-07-30T11:53:12;27.10;94.30
39621;DHT22;25309;48.686;9.170;2023-07-30T11:55:41;27.30;94.50
39621;DHT22;25309;48.686;9.170;2023-07-30T11:58:09;27.40;93.30
39621;DHT22;25309;48.686;9.170;2023-07-30T12:00:36;27.50;94.20
39621;DHT22;25309;48.686;9.170;2023-07-30T12:03:08;27.80;95.40
39621;DHT22;25309;48.686;9.170;2023-07-30T12:05:37;28.50;97.50
39621;DHT22;25309;48.686;9.170;2023-07-30T12:08:06;28.90;96.30
39621;DHT22;25309;48.686;9.170;2023-07-30T12:10:44;28.80;95.80
39621;DHT22;25309;48.686;9.170;2023-07-30T12:13:12;28.70;96.30
39621;DHT22;25309;48.686;9.170;2023-07-30T12:15:39;28.90;96.40
39621;DHT22;25309;48.686;9.170;2023-07-30T12:18:07;29.50;97.00
39621;DHT22;25309;48.686;9.170;2023-07-30T12:20:34;29.40;93.80
39621;DHT22;25309;48.686;9.170;2023-07-30T12:23:01;29.00;95.90
39621;DHT22;25309;48.686;9.170;2023-07-30T12:25:29;28.90;94.70
39621;DHT22;25309;48.686;9.170;2023-07-30T12:27:56;28.80;95.60
39621;DHT22;25309;48.686;9.170;2023-07-30T12:30:23;28.70;94.70
39621;DHT22;25309;48.686;9.170;2023-07-30T12:32:52;28.20;94.90
39621;DHT22;25309;48.686;9.170;2023-07-30T12:35:21;27.90;96.10
39621;DHT22;25309;48.686;9.170;2023-07-30T12:37:48;27.80;96.50
39621;DHT22;25309;48.686;9.170;2023-07-30T12:40:16;27.70;96.50
39621;DHT22;25309;48.686;9.170;2023-07-30T12:42:43;27.40;95.70
39621;DHT22;25309;48.686;9.170;2023-07-30T12:45:10;27.00;95.50
39621;DHT22;25309;48.686;9.170;2023-07-30T12:47:37;26.50;96.50
39621;DHT22;25309;48.686;9.170;2023-07-30T12:50:05;26.30;97.30
39621;DHT22;25309;48.686;9.170;2023-07-30T12:52:34;26.10;96.70
39621;DHT22;25309;48.686;9.170;2023-07-30T12:55:01;26.20;96.50
39621;DHT22;25309;48.686;9.170;2023-07-30T12:57:30;26.40;97.40
39621;DHT22;25309;48.686;9.170;2023-07-30T12:59:57;26.70;97.20
39621;DHT22;25309;48.686;9.170;2023-07-30T13:02:24;26.70;95.40
39621;DHT22;25309;48.686;9.170;2023-07-30T13:04:51;26.30;96.30
39621;DHT22;25309;48.686;9.170;2023-07-30T13:07:18;25.90;96.20
39621;DHT22;25309;48.686;9.170;2023-07-30T13:09:47;25.80;96.00
39621;DHT22;25309;48.686;9.170;2023-07-30T13:12:14;25.50;95.70
39621;DHT22;25309;48.686;9.170;2023-07-30T13:14:41;25.30;97.10
39621;DHT22;25309;48.686;9.170;2023-07-30T13:17:08;25.30;96.60
39621;DHT22;25309;48.686;9.170;2023-07-30T13:19:35;25.40;97.90
39621;DHT22;25309;48.686;9.170;2023-07-30T13:22:02;26.00;96.10
39621;DHT22;25309;48.686;9.170;2023-07-30T13:24:29;26.10;95.20
39621;DHT22;25309;48.686;9.170;2023-07-30T13:26:59;25.90;95.10
39621;DHT22;25309;48.686;9.170;2023-07-30T13:29:26;25.60;95.80
39621;DHT22;25309;48.686;9.170;2023-07-30T13:31:54;25.60;95.90
39621;DHT22;25309;48.686;9.170;2023-07-30T13:34:20;25.40;95.40
39621;DHT22;25309;48.686;9.170;2023-07-30T13:36:47;25.30;96.20
39621;DHT22;25309;48.686;9.170;2023-07-30T13:39:14;25.10;95.10
39621;DHT22;25309;48.686;9.170;2023-07-30T13:41:41;24.90;95.10
39621;DHT22;25309;48.686;9.170;2023-07-30T13:44:10;24.80;96.20
39621;DHT22;25309;48.686;9.170;2023-07-30T13:46:37;24.90;96.60
39621;DHT22;25309;48.686;9.170;2023-07-30T13:49:07;24.90;96.60
39621;DHT22;25309;48.686;9.170;2023-07-30T13:51:34;25.00;96.90
39621;DHT22;25309;48.686;9.170;2023-07-30T13:54:02;25.20;97.10
39621;DHT22;25309;48.686;9.170;2023-07-30T13:56:29;25.40;97.50
39621;DHT22;25309;48.686;9.170;2023-07-30T13:58:56;25.80;97.30
39621;DHT22;25309;48.686;9.170;2023-07-30T14:01:24;25.90;96.50
39621;DHT22;25309;48.686;9.170;2023-07-30T14:03:52;25.70;95.70
39621;DHT22;25309;48.686;9.170;2023-07-30T14:06:19;25.60;96.30
39621;DHT22;25309;48.686;9.170;2023-07-30T14:08:45;25.40;95.10
39621;DHT22;25309;48.686;9.170;2023-07-30T14:11:12;25.20;95.20
39621;DHT22;25309;48.686;9.170;2023-07-30T14:13:39;24.90;95.10
39621;DHT22;25309;48.686;9.170;2023-07-30T14:16:06;24.80;95.40
39621;DHT22;25309;48.686;9.170;2023-07-30T14:18:35;25.00;95.00
39621;DHT22;25309;48.686;9.170;2023-07-30T14:21:02;25.20;95.30
39621;DHT22;25309;48.686;9.170;2023-07-30T14:23:29;25.50;95.50
39621;DHT22;25309;48.686;9.170;2023-07-30T14:25:56;25.90;94.90
39621;DHT22;25309;48.686;9.170;2023-07-30T14:28:23;25.90;94.20
39621;DHT22;25309;48.686;9.170;2023-07-30T14:30:50;25.50;94.00
39621;DHT22;25309;48.686;9.170;2023-07-30T14:33:17;25.30;95.20
39621;DHT22;25309;48.686;9.170;2023-07-30T14:35:46;25.20;94.80
39621;DHT22;25309;48.686;9.170;2023-07-30T14:38:13;25.20;95.10
39621;DHT22;25309;48.686;9.170;2023-07-30T14:40:41;25.50;94.80
39621;DHT22;25309;48.686;9.170;2023-07-30T14:43:08;25.90;94.80
39621;DHT22;25309;48.686;9.170;2023-07-30T14:45:35;26.40;93.20
39621;DHT22;25309;48.686;9.170;2023-07-30T14:48:03;26.40;93.30
39621;DHT22;25309;48.686;9.170;2023-07-30T14:50:30;26.40;92.80
39621;DHT22;25309;48.686;9.170;2023-07-30T14:52:58;26.20;92.60
39621;DHT22;25309;48.686;9.170;2023-07-30T14:55:25;26.20;92.60
39621;DHT22;25309;48.686;9.170;2023-07-30T14:57:53;26.00;93.10
39621;DHT22;25309;48.686;9.170;2023-07-30T15:00:20;26.10;92.30
39621;DHT22;25309;48.686;9.170;2023-07-30T15:02:47;26.10;92.50
39621;DHT22;25309;48.686;9.170;2023-07-30T15:05:14;25.80;92.70
39621;DHT22;25309;48.686;9.170;2023-07-30T15:07:41;25.80;92.20
39621;DHT22;25309;48.686;9.170;2023-07-30T15:10:09;25.70;91.80
39621;DHT22;25309;48.686;9.170;2023-07-30T15:12:36;25.50;91.70
39621;DHT22;25309;48.686;9.170;2023-07-30T15:15:05;25.30;92.00
39621;DHT22;25309;48.686;9.170;2023-07-30T15:17:32;25.30;92.10
39621;DHT22;25309;48.686;9.170;2023-07-30T15:20:00;25.30;92.20
39621;DHT22;25309;48.686;9.170;2023-07-30T15:22:27;25.30;92.00
39621;DHT22;25309;48.686;9.170;2023-07-30T15:24:54;25.30;92.00
39621;DHT22;25309;48.686;9.170;2023-07-30T15:27:22;25.30;91.10
39621;DHT22;25309;48.686;9.170;2023-07-30T15:29:50;25.30;91.50
39621;DHT22;25309;48.686;9.170;2023-07-30T15:32:17;25.30;91.70